sensor_id;sensor_type;location;lat;lon;timestamp;P1;durP1;ratioP1;P2;durP2;ratioP2
1682;SDS011;13252;53.596;10.060;2023-03-01T00:01:41;24.80;;;15.50;;
1682;SDS011;13252;53.596;10.060;2023-03-01T00:04:09;25.50;;;16.80;;
1682;SDS011;13252;53.596;10.060;2023-03-01T00:06:36;27.60;;;16.57;;
1682;SDS011;13252;53.596;10.060;2023-03-01T00:09:04;28.00;;;16.97;;
1682;SDS011;13252;53.596;10.060;2023-03-01T00:11:33;31.80;;;16.53;;
1682;SDS011;13252;53.596;10.060;2023-03-01T00:14:02;30.17;;;17.73;;
1682;SDS011;13252;53.596;10.060;2023-03-01T00:16:33;27.33;;;16.03;;
1682;SDS011;13252;53.596;10.060;2023-03-01T00:19:02;31.77;;;17.40;;
1682;SDS011;13252;53.596;10.060;2023-03-01T00:21:30;32.40;;;17.77;;
1682;SDS011;13252;53.596;10.060;2023-03-01T00:23:58;29.13;;;17.80;;
1682;SDS011;13252;53.596;10.060;2023-03-01T00:26:26;34.90;;;19.30;;
1682;SDS011;13252;53.596;10.060;2023-03-01T00:28:56;32.10;;;16.37;;
1682;SDS011;13252;53.596;10.060;2023-03-01T00:31:25;37.63;;;16.40;;
1682;SDS011;13252;53.596;10.060;2023-03-01T00:33:55;28.97;;;16.93;;
1682;SDS011;13252;53.596;10.060;2023-03-01T00:36:24;49.00;;;17.37;;
1682;SDS011;13252;53.596;10.060;2023-03-01T00:38:53;31.50;;;16.90;;
1682;SDS011;13252;53.596;10.060;2023-03-01T00:41:21;29.40;;;18.10;;
1682;SDS011;13252;53.596;10.060;2023-03-01T00:43:52;30.60;;;15.80;;
1682;SDS011;13252;53.596;10.060;2023-03-01T00:46:22;33.40;;;16.67;;
1682;SDS011;13252;53.596;10.060;2023-03-01T00:48:51;32.03;;;18.77;;
1682;SDS011;13252;53.596;10.060;2023-03-01T00:51:21;34.93;;;18.40;;
1682;SDS011;13252;53.596;10.060;2023-03-01T00:53:51;31.90;;;18.67;;
1682;SDS011;13252;53.596;10.060;2023-03-01T00:56:20;26.90;;;18.00;;
1682;SDS011;13252;53.596;10.060;2023-03-01T00:58:48;31.70;;;17.07;;
1682;SDS011;13252;53.596;10.060;2023-03-01T01:01:17;29.83;;;17.20;;
1682;SDS011;13252;53.596;10.060;2023-03-01T01:03:46;32.37;;;18.77;;
1682;SDS011;13252;53.596;10.060;2023-03-01T01:06:15;35.97;;;17.93;;
1682;SDS011;13252;53.596;10.060;2023-03-01T01:08:46;36.93;;;16.77;;
1682;SDS011;13252;53.596;10.060;2023-03-01T01:11:14;28.63;;;16.93;;
1682;SDS011;13252;53.596;10.060;2023-03-01T01:13:43;28.57;;;17.10;;
1682;SDS011;13252;53.596;10.060;2023-03-01T01:16:11;25.47;;;16.07;;
1682;SDS011;13252;53.596;10.060;2023-03-01T01:18:39;28.80;;;16.80;;
1682;SDS011;13252;53.596;10.060;2023-03-01T01:21:08;28.37;;;15.20;;
1682;SDS011;13252;53.596;10.060;2023-03-01T01:23:37;32.17;;;16.67;;
1682;SDS011;13252;53.596;10.060;2023-03-01T01:26:07;28.07;;;16.17;;
1682;SDS011;13252;53.596;10.060;2023-03-01T01:28:36;30.27;;;18.10;;
1682;SDS011;13252;53.596;10.060;2023-03-01T01:31:04;25.43;;;15.10;;
1682;SDS011;13252;53.596;10.060;2023-03-01T01:33:33;21.03;;;13.23;;
1682;SDS011;13252;53.596;10.060;2023-03-01T01:36:01;32.00;;;17.13;;
1682;SDS011;13252;53.596;10.060;2023-03-01T01:38:29;26.80;;;16.13;;
1682;SDS011;13252;53.596;10.060;2023-03-01T01:40:57;25.70;;;16.17;;
1682;SDS011;13252;53.596;10.060;2023-03-01T01:43:28;24.53;;;13.83;;
1682;SDS011;13252;53.596;10.060;2023-03-01T01:45:57;28.03;;;16.57;;
1682;SDS011;13252;53.596;10.060;2023-03-01T01:48:27;24.70;;;15.60;;
1682;SDS011;13252;53.596;10.060;2023-03-01T01:51:09;30.00;;;15.50;;
1682;SDS011;13252;53.596;10.060;2023-03-01T01:53:40;28.20;;;16.47;;
1682;SDS011;13252;53.596;10.060;2023-03-01T01:56:08;25.23;;;15.17;;
1682;SDS011;13252;53.596;10.060;2023-03-01T01:58:38;25.17;;;16.00;;
1682;SDS011;13252;53.596;10.060;2023-03-01T02:01:06;25.90;;;16.53;;
1682;SDS011;13252;53.596;10.060;2023-03-01T02:03:34;30.67;;;15.23;;
1682;SDS011;13252;53.596;10.060;2023-03-01T02:06:11;25.00;;;14.97;;
1682;SDS011;13252;53.596;10.060;2023-03-01T02:08:40;22.73;;;16.07;;
1682;SDS011;13252;53.596;10.060;2023-03-01T02:11:09;25.63;;;15.37;;
1682;SDS011;13252;53.596;10.060;2023-03-01T02:13:39;21.93;;;14.97;;
1682;SDS011;13252;53.596;10.060;2023-03-01T02:16:08;25.27;;;16.20;;
1682;SDS011;13252;53.596;10.060;2023-03-01T02:18:37;28.83;;;15.40;;
1682;SDS011;13252;53.596;10.060;2023-03-01T02:21:08;25.67;;;16.33;;
1682;SDS011;13252;53.596;10.060;2023-03-01T02:23:43;25.97;;;16.00;;
1682;SDS011;13252;53.596;10.060;2023-03-01T02:26:14;24.30;;;15.60;;
1682;SDS011;13252;53.596;10.060;2023-03-01T02:28:48;24.83;;;16.87;;
1682;SDS011;13252;53.596;10.060;2023-03-01T02:31:17;28.00;;;15.53;;
1682;SDS011;13252;53.596;10.060;2023-03-01T02:33:59;24.23;;;16.60;;
1682;SDS011;13252;53.596;10.060;2023-03-01T02:36:33;25.97;;;15.70;;
1682;SDS011;13252;53.596;10.060;2023-03-01T02:39:04;25.93;;;16.27;;
1682;SDS011;13252;53.596;10.060;2023-03-01T02:41:34;26.70;;;16.23;;
1682;SDS011;13252;53.596;10.060;2023-03-01T02:44:05;29.20;;;15.70;;
1682;SDS011;13252;53.596;10.060;2023-03-01T02:46:41;26.97;;;17.73;;
1682;SDS011;13252;53.596;10.060;2023-03-01T02:49:18;23.03;;;15.50;;
1682;SDS011;13252;53.596;10.060;2023-03-01T02:51:50;26.73;;;16.60;;
1682;SDS011;13252;53.596;10.060;2023-03-01T02:54:28;30.50;;;16.97;;
1682;SDS011;13252;53.596;10.060;2023-03-01T02:56:58;25.73;;;17.00;;
1682;SDS011;13252;53.596;10.060;2023-03-01T02:59:31;28.43;;;15.90;;
1682;SDS011;13252;53.596;10.060;2023-03-01T03:02:01;29.43;;;16.70;;
1682;SDS011;13252;53.596;10.060;2023-03-01T03:04:29;24.87;;;15.30;;
1682;SDS011;13252;53.596;10.060;2023-03-01T03:06:57;33.23;;;16.70;;
1682;SDS011;13252;53.596;10.060;2023-03-01T03:09:25;27.93;;;16.10;;
1682;SDS011;13252;53.596;10.060;2023-03-01T03:11:54;23.50;;;15.53;;
1682;SDS011;13252;53.596;10.060;2023-03-01T03:14:22;23.83;;;13.97;;
1682;SDS011;13252;53.596;10.060;2023-03-01T03:16:51;40.70;;;15.80;;
1682;SDS011;13252;53.596;10.060;2023-03-01T03:19:19;24.30;;;15.43;;
1682;SDS011;13252;53.596;10.060;2023-03-01T03:21:47;29.97;;;16.00;;
1682;SDS011;13252;53.596;10.060;2023-03-01T03:24:15;27.50;;;16.60;;
1682;SDS011;13252;53.596;10.060;2023-03-01T03:26:44;23.40;;;15.27;;
1682;SDS011;13252;53.596;10.060;2023-03-01T03:29:12;20.60;;;14.67;;
1682;SDS011;13252;53.596;10.060;2023-03-01T03:31:40;28.00;;;16.60;;
1682;SDS011;13252;53.596;10.060;2023-03-01T03:34:09;22.10;;;15.33;;
1682;SDS011;13252;53.596;10.060;2023-03-01T03:36:44;29.40;;;16.80;;
1682;SDS011;13252;53.596;10.060;2023-03-01T03:39:11;23.13;;;15.67;;
1682;SDS011;13252;53.596;10.060;2023-03-01T03:41:39;29.17;;;16.67;;
1682;SDS011;13252;53.596;10.060;2023-03-01T03:44:07;23.50;;;16.03;;
1682;SDS011;13252;53.596;10.060;2023-03-01T03:46:34;21.33;;;15.00;;
1682;SDS011;13252;53.596;10.060;2023-03-01T03:49:02;25.63;;;15.90;;
1682;SDS011;13252;53.596;10.060;2023-03-01T03:51:31;22.23;;;15.13;;
1682;SDS011;13252;53.596;10.060;2023-03-01T03:53:59;20.80;;;15.03;;
1682;SDS011;13252;53.596;10.060;2023-03-01T03:56:26;35.30;;;15.77;;
1682;SDS011;13252;53.596;10.060;2023-03-01T03:58:54;25.20;;;15.73;;
1682;SDS011;13252;53.596;10.060;2023-03-01T04:01:22;22.00;;;16.00;;
1682;SDS011;13252;53.596;10.060;2023-03-01T04:03:50;23.37;;;15.13;;
1682;SDS011;13252;53.596;10.060;2023-03-01T04:06:20;24.90;;;15.30;;
1682;SDS011;13252;53.596;10.060;2023-03-01T04:08:50;23.50;;;16.20;;
1682;SDS011;13252;53.596;10.060;2023-03-01T04:11:26;26.57;;;15.67;;
1682;SDS011;13252;53.596;10.060;2023-03-01T04:13:54;24.03;;;15.83;;
1682;SDS011;13252;53.596;10.060;2023-03-01T04:16:24;25.07;;;15.23;;
1682;SDS011;13252;53.596;10.060;2023-03-01T04:18:52;21.60;;;14.77;;
1682;SDS011;13252;53.596;10.060;2023-03-01T04:21:20;27.63;;;15.50;;
1682;SDS011;13252;53.596;10.060;2023-03-01T04:23:49;23.50;;;15.13;;
1682;SDS011;13252;53.596;10.060;2023-03-01T04:26:19;23.10;;;13.50;;
1682;SDS011;13252;53.596;10.060;2023-03-01T04:28:47;23.30;;;15.40;;
1682;SDS011;13252;53.596;10.060;2023-03-01T04:31:17;31.87;;;13.97;;
1682;SDS011;13252;53.596;10.060;2023-03-01T04:33:48;20.20;;;14.73;;
1682;SDS011;13252;53.596;10.060;2023-03-01T04:36:18;20.37;;;13.60;;
1682;SDS011;13252;53.596;10.060;2023-03-01T04:38:47;20.57;;;14.27;;
1682;SDS011;13252;53.596;10.060;2023-03-01T04:41:17;22.63;;;15.50;;
1682;SDS011;13252;53.596;10.060;2023-03-01T04:43:46;23.77;;;13.43;;
1682;SDS011;13252;53.596;10.060;2023-03-01T04:46:15;23.63;;;14.63;;
1682;SDS011;13252;53.596;10.060;2023-03-01T04:48:45;22.60;;;14.70;;
1682;SDS011;13252;53.596;10.060;2023-03-01T04:51:13;22.27;;;13.50;;
1682;SDS011;13252;53.596;10.060;2023-03-01T04:53:42;28.33;;;14.00;;
1682;SDS011;13252;53.596;10.060;2023-03-01T04:56:10;19.90;;;14.03;;
1682;SDS011;13252;53.596;10.060;2023-03-01T04:58:41;20.80;;;13.63;;
1682;SDS011;13252;53.596;10.060;2023-03-01T05:01:09;23.13;;;13.80;;
1682;SDS011;13252;53.596;10.060;2023-03-01T05:03:41;21.03;;;13.17;;
1682;SDS011;13252;53.596;10.060;2023-03-01T05:06:10;22.00;;;13.77;;
1682;SDS011;13252;53.596;10.060;2023-03-01T05:08:37;26.53;;;15.00;;
1682;SDS011;13252;53.596;10.060;2023-03-01T05:11:06;17.60;;;12.97;;
1682;SDS011;13252;53.596;10.060;2023-03-01T05:13:35;20.43;;;11.47;;
1682;SDS011;13252;53.596;10.060;2023-03-01T05:16:06;19.07;;;13.93;;
1682;SDS011;13252;53.596;10.060;2023-03-01T05:18:38;21.10;;;13.07;;
1682;SDS011;13252;53.596;10.060;2023-03-01T05:21:06;18.83;;;13.60;;
1682;SDS011;13252;53.596;10.060;2023-03-01T05:23:35;25.63;;;12.50;;
1682;SDS011;13252;53.596;10.060;2023-03-01T05:26:03;17.83;;;12.37;;
1682;SDS011;13252;53.596;10.060;2023-03-01T05:28:36;17.17;;;11.60;;
1682;SDS011;13252;53.596;10.060;2023-03-01T05:31:06;21.13;;;12.53;;
1682;SDS011;13252;53.596;10.060;2023-03-01T05:33:36;14.00;;;10.33;;
1682;SDS011;13252;53.596;10.060;2023-03-01T05:36:04;22.83;;;10.83;;
1682;SDS011;13252;53.596;10.060;2023-03-01T05:38:33;20.80;;;11.37;;
1682;SDS011;13252;53.596;10.060;2023-03-01T05:41:01;25.23;;;12.17;;
1682;SDS011;13252;53.596;10.060;2023-03-01T05:43:29;16.23;;;11.23;;
1682;SDS011;13252;53.596;10.060;2023-03-01T05:46:00;22.13;;;13.23;;
1682;SDS011;13252;53.596;10.060;2023-03-01T05:48:29;19.20;;;11.23;;
1682;SDS011;13252;53.596;10.060;2023-03-01T05:50:59;18.53;;;11.27;;
1682;SDS011;13252;53.596;10.060;2023-03-01T05:53:27;18.33;;;10.87;;
1682;SDS011;13252;53.596;10.060;2023-03-01T05:55:55;14.53;;;9.03;;
1682;SDS011;13252;53.596;10.060;2023-03-01T05:58:22;10.83;;;7.13;;
1682;SDS011;13252;53.596;10.060;2023-03-01T06:00:50;16.10;;;9.20;;
1682;SDS011;13252;53.596;10.060;2023-03-01T06:03:20;16.53;;;9.27;;
1682;SDS011;13252;53.596;10.060;2023-03-01T06:05:49;16.23;;;10.23;;
1682;SDS011;13252;53.596;10.060;2023-03-01T06:08:17;12.77;;;8.77;;
1682;SDS011;13252;53.596;10.060;2023-03-01T06:10:46;12.60;;;8.60;;
1682;SDS011;13252;53.596;10.060;2023-03-01T06:13:14;16.63;;;10.07;;
1682;SDS011;13252;53.596;10.060;2023-03-01T06:15:42;14.97;;;8.37;;
1682;SDS011;13252;53.596;10.060;2023-03-01T06:18:10;15.47;;;9.50;;
1682;SDS011;13252;53.596;10.060;2023-03-01T06:20:38;18.70;;;10.13;;
1682;SDS011;13252;53.596;10.060;2023-03-01T06:23:07;21.10;;;10.20;;
1682;SDS011;13252;53.596;10.060;2023-03-01T06:25:36;14.53;;;8.83;;
1682;SDS011;13252;53.596;10.060;2023-03-01T06:28:04;23.30;;;8.50;;
1682;SDS011;13252;53.596;10.060;2023-03-01T06:30:32;15.80;;;9.27;;
1682;SDS011;13252;53.596;10.060;2023-03-01T06:32:59;28.03;;;9.10;;
1682;SDS011;13252;53.596;10.060;2023-03-01T06:35:28;15.10;;;9.20;;
1682;SDS011;13252;53.596;10.060;2023-03-01T06:37:58;13.50;;;9.60;;
1682;SDS011;13252;53.596;10.060;2023-03-01T06:40:27;12.40;;;8.57;;
1682;SDS011;13252;53.596;10.060;2023-03-01T06:42:55;11.13;;;8.37;;
1682;SDS011;13252;53.596;10.060;2023-03-01T06:45:23;14.93;;;10.07;;
1682;SDS011;13252;53.596;10.060;2023-03-01T06:47:50;15.90;;;9.50;;
1682;SDS011;13252;53.596;10.060;2023-03-01T06:50:18;16.43;;;7.83;;
1682;SDS011;13252;53.596;10.060;2023-03-01T06:52:46;10.87;;;8.17;;
1682;SDS011;13252;53.596;10.060;2023-03-01T06:55:13;14.10;;;8.40;;
1682;SDS011;13252;53.596;10.060;2023-03-01T06:57:42;14.40;;;9.13;;
1682;SDS011;13252;53.596;10.060;2023-03-01T07:00:10;20.67;;;8.90;;
1682;SDS011;13252;53.596;10.060;2023-03-01T07:02:39;11.77;;;7.60;;
1682;SDS011;13252;53.596;10.060;2023-03-01T07:05:07;22.23;;;6.83;;
1682;SDS011;13252;53.596;10.060;2023-03-01T07:07:35;13.13;;;7.03;;
1682;SDS011;13252;53.596;10.060;2023-03-01T07:10:03;13.80;;;7.03;;
1682;SDS011;13252;53.596;10.060;2023-03-01T07:12:31;12.23;;;7.03;;
1682;SDS011;13252;53.596;10.060;2023-03-01T07:15:00;12.10;;;7.37;;
1682;SDS011;13252;53.596;10.060;2023-03-01T07:17:27;11.07;;;6.77;;
1682;SDS011;13252;53.596;10.060;2023-03-01T07:19:55;8.53;;;6.20;;
1682;SDS011;13252;53.596;10.060;2023-03-01T07:22:23;10.07;;;7.10;;
1682;SDS011;13252;53.596;10.060;2023-03-01T07:24:51;17.70;;;8.50;;
1682;SDS011;13252;53.596;10.060;2023-03-01T07:27:18;31.27;;;6.30;;
1682;SDS011;13252;53.596;10.060;2023-03-01T07:29:46;12.30;;;7.20;;
1682;SDS011;13252;53.596;10.060;2023-03-01T07:32:15;13.07;;;7.87;;
1682;SDS011;13252;53.596;10.060;2023-03-01T07:34:43;14.07;;;8.00;;
1682;SDS011;13252;53.596;10.060;2023-03-01T07:37:10;16.20;;;8.07;;
1682;SDS011;13252;53.596;10.060;2023-03-01T07:39:38;12.63;;;7.53;;
1682;SDS011;13252;53.596;10.060;2023-03-01T07:42:06;13.13;;;7.90;;
1682;SDS011;13252;53.596;10.060;2023-03-01T07:44:33;15.50;;;9.20;;
1682;SDS011;13252;53.596;10.060;2023-03-01T07:47:02;19.40;;;9.37;;
1682;SDS011;13252;53.596;10.060;2023-03-01T07:49:31;15.10;;;10.40;;
1682;SDS011;13252;53.596;10.060;2023-03-01T07:51:59;22.73;;;9.93;;
1682;SDS011;13252;53.596;10.060;2023-03-01T07:54:27;12.27;;;9.30;;
1682;SDS011;13252;53.596;10.060;2023-03-01T07:56:56;13.20;;;9.80;;
1682;SDS011;13252;53.596;10.060;2023-03-01T07:59:24;13.77;;;9.83;;
1682;SDS011;13252;53.596;10.060;2023-03-01T08:01:55;14.40;;;11.47;;
1682;SDS011;13252;53.596;10.060;2023-03-01T08:04:23;26.20;;;11.47;;
1682;SDS011;13252;53.596;10.060;2023-03-01T08:06:56;16.17;;;12.27;;
1682;SDS011;13252;53.596;10.060;2023-03-01T08:09:24;25.80;;;12.27;;
1682;SDS011;13252;53.596;10.060;2023-03-01T08:11:52;20.30;;;12.77;;
1682;SDS011;13252;53.596;10.060;2023-03-01T08:14:20;22.03;;;11.30;;
1682;SDS011;13252;53.596;10.060;2023-03-01T08:16:48;17.03;;;12.00;;
1682;SDS011;13252;53.596;10.060;2023-03-01T08:19:16;14.00;;;10.80;;
1682;SDS011;13252;53.596;10.060;2023-03-01T08:21:44;17.53;;;11.07;;
1682;SDS011;13252;53.596;10.060;2023-03-01T08:24:13;19.50;;;11.70;;
1682;SDS011;13252;53.596;10.060;2023-03-01T08:26:41;18.47;;;11.90;;
1682;SDS011;13252;53.596;10.060;2023-03-01T08:29:09;19.60;;;10.27;;
1682;SDS011;13252;53.596;10.060;2023-03-01T08:31:38;18.30;;;11.27;;
1682;SDS011;13252;53.596;10.060;2023-03-01T08:34:08;17.60;;;12.47;;
1682;SDS011;13252;53.596;10.060;2023-03-01T08:36:38;17.33;;;11.27;;
1682;SDS011;13252;53.596;10.060;2023-03-01T08:39:07;15.43;;;11.33;;
1682;SDS011;13252;53.596;10.060;2023-03-01T08:41:37;19.47;;;12.40;;
1682;SDS011;13252;53.596;10.060;2023-03-01T08:44:04;18.40;;;12.10;;
1682;SDS011;13252;53.596;10.060;2023-03-01T08:46:34;22.97;;;13.37;;
1682;SDS011;13252;53.596;10.060;2023-03-01T08:49:03;22.03;;;11.83;;
1682;SDS011;13252;53.596;10.060;2023-03-01T08:51:31;17.17;;;13.30;;
1682;SDS011;13252;53.596;10.060;2023-03-01T08:54:03;22.23;;;14.40;;
1682;SDS011;13252;53.596;10.060;2023-03-01T08:56:31;18.93;;;13.00;;
1682;SDS011;13252;53.596;10.060;2023-03-01T08:59:00;17.63;;;13.80;;
1682;SDS011;13252;53.596;10.060;2023-03-01T09:01:28;16.60;;;13.63;;
1682;SDS011;13252;53.596;10.060;2023-03-01T09:03:55;23.90;;;14.30;;
1682;SDS011;13252;53.596;10.060;2023-03-01T09:06:23;25.87;;;15.20;;
1682;SDS011;13252;53.596;10.060;2023-03-01T09:08:51;20.13;;;14.53;;
1682;SDS011;13252;53.596;10.060;2023-03-01T09:11:19;22.23;;;14.40;;
1682;SDS011;13252;53.596;10.060;2023-03-01T09:13:48;20.07;;;13.90;;
1682;SDS011;13252;53.596;10.060;2023-03-01T09:16:18;23.37;;;15.13;;
1682;SDS011;13252;53.596;10.060;2023-03-01T09:18:48;20.47;;;13.40;;
1682;SDS011;13252;53.596;10.060;2023-03-01T09:21:17;23.00;;;15.37;;
1682;SDS011;13252;53.596;10.060;2023-03-01T09:24:04;22.80;;;14.43;;
1682;SDS011;13252;53.596;10.060;2023-03-01T09:26:32;20.77;;;13.80;;
1682;SDS011;13252;53.596;10.060;2023-03-01T09:29:00;19.07;;;14.90;;
1682;SDS011;13252;53.596;10.060;2023-03-01T09:31:29;17.77;;;12.50;;
1682;SDS011;13252;53.596;10.060;2023-03-01T09:33:56;20.20;;;15.37;;
1682;SDS011;13252;53.596;10.060;2023-03-01T09:36:24;18.70;;;15.23;;
1682;SDS011;13252;53.596;10.060;2023-03-01T09:38:52;19.63;;;15.20;;
1682;SDS011;13252;53.596;10.060;2023-03-01T09:41:34;18.40;;;15.73;;
1682;SDS011;13252;53.596;10.060;2023-03-01T09:44:08;20.03;;;13.47;;
1682;SDS011;13252;53.596;10.060;2023-03-01T09:46:41;16.47;;;13.60;;
1682;SDS011;13252;53.596;10.060;2023-03-01T09:49:12;20.93;;;13.70;;
1682;SDS011;13252;53.596;10.060;2023-03-01T09:51:47;34.43;;;16.10;;
1682;SDS011;13252;53.596;10.060;2023-03-01T09:54:22;22.63;;;14.70;;
1682;SDS011;13252;53.596;10.060;2023-03-01T09:56:59;17.50;;;14.10;;
1682;SDS011;13252;53.596;10.060;2023-03-01T09:59:33;31.40;;;13.50;;
1682;SDS011;13252;53.596;10.060;2023-03-01T10:02:11;15.77;;;12.70;;
1682;SDS011;13252;53.596;10.060;2023-03-01T10:04:50;18.73;;;14.40;;
1682;SDS011;13252;53.596;10.060;2023-03-01T10:07:26;17.40;;;13.30;;
1682;SDS011;13252;53.596;10.060;2023-03-01T10:09:56;23.13;;;12.53;;
1682;SDS011;13252;53.596;10.060;2023-03-01T10:12:27;18.90;;;12.70;;
1682;SDS011;13252;53.596;10.060;2023-03-01T10:15:02;20.27;;;13.80;;
1682;SDS011;13252;53.596;10.060;2023-03-01T10:17:35;16.90;;;11.87;;
1682;SDS011;13252;53.596;10.060;2023-03-01T10:20:15;16.50;;;12.20;;
1682;SDS011;13252;53.596;10.060;2023-03-01T10:22:46;16.20;;;12.00;;
1682;SDS011;13252;53.596;10.060;2023-03-01T10:25:21;21.13;;;13.80;;
1682;SDS011;13252;53.596;10.060;2023-03-01T10:28:05;16.23;;;11.67;;
1682;SDS011;13252;53.596;10.060;2023-03-01T10:30:38;17.43;;;11.73;;
1682;SDS011;13252;53.596;10.060;2023-03-01T10:33:19;16.93;;;11.33;;
1682;SDS011;13252;53.596;10.060;2023-03-01T10:35:49;16.10;;;10.13;;
1682;SDS011;13252;53.596;10.060;2023-03-01T10:38:17;15.70;;;10.20;;
1682;SDS011;13252;53.596;10.060;2023-03-01T10:40:50;18.97;;;10.87;;
1682;SDS011;13252;53.596;10.060;2023-03-01T10:43:20;15.77;;;10.60;;
1682;SDS011;13252;53.596;10.060;2023-03-01T10:45:49;16.27;;;11.50;;
1682;SDS011;13252;53.596;10.060;2023-03-01T10:48:18;26.83;;;11.93;;
1682;SDS011;13252;53.596;10.060;2023-03-01T10:50:50;15.27;;;11.17;;
1682;SDS011;13252;53.596;10.060;2023-03-01T10:53:20;18.40;;;11.97;;
1682;SDS011;13252;53.596;10.060;2023-03-01T10:55:56;17.13;;;11.27;;
1682;SDS011;13252;53.596;10.060;2023-03-01T10:58:25;18.23;;;10.83;;
1682;SDS011;13252;53.596;10.060;2023-03-01T11:00:54;16.03;;;10.93;;
1682;SDS011;13252;53.596;10.060;2023-03-01T11:03:26;21.13;;;12.90;;
1682;SDS011;13252;53.596;10.060;2023-03-01T11:05:56;20.63;;;11.20;;
1682;SDS011;13252;53.596;10.060;2023-03-01T11:08:29;18.43;;;11.30;;
1682;SDS011;13252;53.596;10.060;2023-03-01T11:13:53;17.60;;;11.13;;
1682;SDS011;13252;53.596;10.060;2023-03-01T11:16:23;16.87;;;11.37;;
1682;SDS011;13252;53.596;10.060;2023-03-01T11:18:58;18.43;;;12.00;;
1682;SDS011;13252;53.596;10.060;2023-03-01T11:21:28;18.13;;;11.67;;
1682;SDS011;13252;53.596;10.060;2023-03-01T11:23:59;14.93;;;12.10;;
1682;SDS011;13252;53.596;10.060;2023-03-01T11:26:28;18.30;;;11.00;;
1682;SDS011;13252;53.596;10.060;2023-03-01T11:28:58;13.90;;;10.30;;
1682;SDS011;13252;53.596;10.060;2023-03-01T11:31:31;17.53;;;11.23;;
1682;SDS011;13252;53.596;10.060;2023-03-01T11:34:03;13.63;;;10.37;;
1682;SDS011;13252;53.596;10.060;2023-03-01T11:36:35;14.80;;;10.20;;
1682;SDS011;13252;53.596;10.060;2023-03-01T11:39:12;18.80;;;10.97;;
1682;SDS011;13252;53.596;10.060;2023-03-01T11:41:45;14.80;;;11.97;;
1682;SDS011;13252;53.596;10.060;2023-03-01T11:44:18;13.33;;;10.70;;
1682;SDS011;13252;53.596;10.060;2023-03-01T11:46:58;14.90;;;10.50;;
1682;SDS011;13252;53.596;10.060;2023-03-01T11:52:30;17.67;;;9.83;;
1682;SDS011;13252;53.596;10.060;2023-03-01T11:55:12;16.23;;;10.80;;
1682;SDS011;13252;53.596;10.060;2023-03-01T11:57:53;12.70;;;9.70;;
1682;SDS011;13252;53.596;10.060;2023-03-01T12:00:41;14.20;;;10.70;;
1682;SDS011;13252;53.596;10.060;2023-03-01T12:03:25;17.77;;;9.60;;
1682;SDS011;13252;53.596;10.060;2023-03-01T12:08:42;13.97;;;10.10;;
1682;SDS011;13252;53.596;10.060;2023-03-01T12:11:18;10.57;;;8.73;;
1682;SDS011;13252;53.596;10.060;2023-03-01T12:13:56;22.87;;;10.87;;
1682;SDS011;13252;53.596;10.060;2023-03-01T12:16:37;14.37;;;7.90;;
1682;SDS011;13252;53.596;10.060;2023-03-01T12:19:28;11.47;;;7.30;;
1682;SDS011;13252;53.596;10.060;2023-03-01T12:25:04;11.33;;;8.43;;
1682;SDS011;13252;53.596;10.060;2023-03-01T12:27:53;9.27;;;6.73;;
1682;SDS011;13252;53.596;10.060;2023-03-01T12:30:52;11.00;;;6.90;;
1682;SDS011;13252;53.596;10.060;2023-03-01T12:33:57;13.40;;;8.47;;
1682;SDS011;13252;53.596;10.060;2023-03-01T12:36:45;10.80;;;7.10;;
1682;SDS011;13252;53.596;10.060;2023-03-01T12:39:26;9.07;;;7.30;;
1682;SDS011;13252;53.596;10.060;2023-03-01T12:42:09;9.63;;;6.70;;
1682;SDS011;13252;53.596;10.060;2023-03-01T12:44:51;9.37;;;7.17;;
1682;SDS011;13252;53.596;10.060;2023-03-01T12:47:41;9.70;;;7.30;;
1682;SDS011;13252;53.596;10.060;2023-03-01T12:50:18;9.37;;;6.97;;
1682;SDS011;13252;53.596;10.060;2023-03-01T12:52:48;9.07;;;6.80;;
1682;SDS011;13252;53.596;10.060;2023-03-01T12:55:24;9.63;;;7.00;;
1682;SDS011;13252;53.596;10.060;2023-03-01T12:57:57;12.27;;;7.70;;
1682;SDS011;13252;53.596;10.060;2023-03-01T13:00:31;11.43;;;8.13;;
1682;SDS011;13252;53.596;10.060;2023-03-01T13:03:02;10.40;;;8.60;;
1682;SDS011;13252;53.596;10.060;2023-03-01T13:05:39;7.93;;;6.83;;
1682;SDS011;13252;53.596;10.060;2023-03-01T13:08:16;11.23;;;8.17;;
1682;SDS011;13252;53.596;10.060;2023-03-01T13:10:50;10.67;;;8.70;;
1682;SDS011;13252;53.596;10.060;2023-03-01T13:13:23;11.63;;;8.43;;
1682;SDS011;13252;53.596;10.060;2023-03-01T13:15:52;11.97;;;8.37;;
1682;SDS011;13252;53.596;10.060;2023-03-01T13:18:32;9.20;;;7.07;;
1682;SDS011;13252;53.596;10.060;2023-03-01T13:21:01;10.53;;;7.87;;
1682;SDS011;13252;53.596;10.060;2023-03-01T13:23:32;9.37;;;6.57;;
1682;SDS011;13252;53.596;10.060;2023-03-01T13:26:04;11.20;;;8.10;;
1682;SDS011;13252;53.596;10.060;2023-03-01T13:34:40;11.03;;;7.97;;
1682;SDS011;13252;53.596;10.060;2023-03-01T13:37:18;10.07;;;7.47;;
1682;SDS011;13252;53.596;10.060;2023-03-01T13:39:48;13.37;;;7.90;;
1682;SDS011;13252;53.596;10.060;2023-03-01T13:42:37;8.30;;;6.43;;
1682;SDS011;13252;53.596;10.060;2023-03-01T13:45:14;9.80;;;6.67;;
1682;SDS011;13252;53.596;10.060;2023-03-01T13:47:45;7.30;;;5.60;;
1682;SDS011;13252;53.596;10.060;2023-03-01T13:50:18;7.20;;;4.80;;
1682;SDS011;13252;53.596;10.060;2023-03-01T13:52:52;7.43;;;4.50;;
1682;SDS011;13252;53.596;10.060;2023-03-01T13:55:24;7.13;;;6.13;;
1682;SDS011;13252;53.596;10.060;2023-03-01T13:58:14;10.33;;;6.00;;
1682;SDS011;13252;53.596;10.060;2023-03-01T14:00:44;9.20;;;6.40;;
1682;SDS011;13252;53.596;10.060;2023-03-01T14:03:13;6.67;;;4.93;;
1682;SDS011;13252;53.596;10.060;2023-03-01T14:05:43;8.20;;;5.93;;
1682;SDS011;13252;53.596;10.060;2023-03-01T14:08:40;12.33;;;5.80;;
1682;SDS011;13252;53.596;10.060;2023-03-01T14:11:15;7.90;;;5.20;;
1682;SDS011;13252;53.596;10.060;2023-03-01T14:13:57;9.77;;;5.00;;
1682;SDS011;13252;53.596;10.060;2023-03-01T14:16:35;6.77;;;4.90;;
1682;SDS011;13252;53.596;10.060;2023-03-01T14:19:12;9.40;;;4.80;;
1682;SDS011;13252;53.596;10.060;2023-03-01T14:22:03;7.20;;;5.53;;
1682;SDS011;13252;53.596;10.060;2023-03-01T14:24:33;8.50;;;5.60;;
1682;SDS011;13252;53.596;10.060;2023-03-01T14:27:02;8.67;;;5.27;;
1682;SDS011;13252;53.596;10.060;2023-03-01T14:29:36;10.60;;;6.03;;
1682;SDS011;13252;53.596;10.060;2023-03-01T14:32:10;9.90;;;4.93;;
1682;SDS011;13252;53.596;10.060;2023-03-01T14:34:42;7.07;;;4.60;;
1682;SDS011;13252;53.596;10.060;2023-03-01T14:37:16;6.90;;;4.50;;
1682;SDS011;13252;53.596;10.060;2023-03-01T14:39:46;6.30;;;4.30;;
1682;SDS011;13252;53.596;10.060;2023-03-01T14:42:15;5.50;;;4.43;;
1682;SDS011;13252;53.596;10.060;2023-03-01T14:44:45;6.87;;;4.70;;
1682;SDS011;13252;53.596;10.060;2023-03-01T14:47:14;11.93;;;5.60;;
1682;SDS011;13252;53.596;10.060;2023-03-01T14:49:43;8.67;;;4.40;;
1682;SDS011;13252;53.596;10.060;2023-03-01T14:52:17;8.07;;;5.20;;
1682;SDS011;13252;53.596;10.060;2023-03-01T14:54:47;7.30;;;5.47;;
1682;SDS011;13252;53.596;10.060;2023-03-01T14:57:16;8.20;;;5.33;;
1682;SDS011;13252;53.596;10.060;2023-03-01T14:59:46;9.10;;;5.13;;
1682;SDS011;13252;53.596;10.060;2023-03-01T15:02:15;6.90;;;5.33;;
1682;SDS011;13252;53.596;10.060;2023-03-01T15:04:45;6.80;;;4.90;;
1682;SDS011;13252;53.596;10.060;2023-03-01T15:07:14;8.37;;;5.40;;
1682;SDS011;13252;53.596;10.060;2023-03-01T15:09:43;7.90;;;5.13;;